Time;durP1;ratioP1;P1;durP2;ratioP2;P2;SDS_P1;SDS_P2;PMS_P1;PMS_P2;Temp;Humidity;BMP_temperature;BMP_pressure;BME280_temperature;BME280_humidity;BME280_pressure;Samples;Min_cycle;Max_cycle;Signal;HPM_P1;HPM_P2
2021/12/02 00:00:18;;;;;;;31.38;16.08;;;;;;;1.42;72.13;99812.66;5107868;28;20032;-21
2021/12/02 00:02:44;;;;;;;27.45;15.55;;;;;;;1.61;71.41;99803.59;5107477;28;20062;-21
2021/12/02 00:05:09;;;;;;;27.33;14.80;;;;;;;1.96;69.70;99799.75;5089145;28;20027;-21
2021/12/02 00:07:35;;;;;;;29.65;14.88;;;;;;;2.20;68.62;99796.19;5107680;28;20125;-21
2021/12/02 00:10:01;;;;;;;21.75;12.38;;;;;;;1.52;68.49;99797.53;5107478;28;20032;-21
2021/12/02 00:12:26;;;;;;;23.80;13.40;;;;;;;1.68;69.21;99767.78;5107685;28;20479;-20
2021/12/02 00:14:52;;;;;;;26.02;14.23;;;;;;;1.51;69.27;99793.28;5107260;28;20030;-21
2021/12/02 00:17:27;;;;;;;26.58;14.07;;;;;;;1.40;70.06;99783.09;5107221;28;20463;-21
2021/12/02 00:22:52;;;;;;;32.95;18.27;;;;;;;1.48;69.79;99771.75;5107439;28;20070;-21
2021/12/02 00:25:17;;;;;;;29.40;17.55;;;;;;;1.64;69.71;99795.38;5073214;28;20840;-20
2021/12/02 00:27:43;;;;;;;30.15;15.98;;;;;;;1.98;68.59;99797.78;5073514;28;20031;-21
2021/12/02 00:30:09;;;;;;;25.38;14.43;;;;;;;2.15;67.57;99808.22;5076335;28;20047;-20
2021/12/02 00:32:36;;;;;;;29.73;16.25;;;;;;;2.07;67.71;99800.38;5111107;28;20051;-21
2021/12/02 00:35:01;;;;;;;24.40;15.27;;;;;;;1.97;67.93;99804.00;5075988;28;20023;-21
2021/12/02 00:37:27;;;;;;;32.00;15.95;;;;;;;1.59;69.17;99795.91;5111127;28;20408;-20
2021/12/02 00:39:53;;;;;;;37.47;21.58;;;;;;;1.43;70.67;99802.97;5111120;28;20062;-21
2021/12/02 00:42:19;;;;;;;47.55;27.08;;;;;;;1.49;70.21;99792.63;5092615;28;20495;-21
2021/12/02 00:44:44;;;;;;;37.03;21.42;;;;;;;1.67;69.99;99802.94;5111055;28;20070;-20
2021/12/02 00:47:10;;;;;;;35.03;20.83;;;;;;;1.52;70.35;99797.53;5110707;28;20413;-20
2021/12/02 00:49:35;;;;;;;44.60;25.42;;;;;;;1.65;69.61;99775.16;5111055;28;20028;-21
2021/12/02 00:52:01;;;;;;;54.35;28.02;;;;;;;1.41;70.05;99803.16;5110975;28;20036;-20
2021/12/02 00:54:27;;;;;;;58.17;29.67;;;;;;;1.68;69.76;99795.88;5110785;28;20023;-21
2021/12/02 00:56:53;;;;;;;48.88;27.05;;;;;;;1.48;69.93;99806.75;5110842;28;20136;-21
2021/12/02 00:59:18;;;;;;;41.13;22.17;;;;;;;1.55;69.62;99789.34;5110648;28;20514;-20
2021/12/02 01:01:44;;;;;;;65.13;30.13;;;;;;;1.56;69.78;99788.34;5092123;28;20024;-21
2021/12/02 01:04:11;;;;;;;77.20;36.03;;;;;;;2.05;68.00;99789.19;5110844;28;20068;-20
2021/12/02 01:06:37;;;;;;;103.30;45.23;;;;;;;1.50;68.88;99786.38;5092512;28;20604;-21
2021/12/02 01:09:04;;;;;;;42.30;24.35;;;;;;;0.91;70.17;99762.13;5110297;28;20040;-21
2021/12/02 01:11:30;;;;;;;42.05;23.70;;;;;;;1.08;70.93;99776.06;5092537;28;20032;-20
2021/12/02 01:13:55;;;;;;;45.90;24.08;;;;;;;1.04;69.96;99778.19;5110588;28;20035;-20
2021/12/02 01:16:21;;;;;;;36.83;21.80;;;;;;;1.28;68.36;99781.81;5110399;28;20042;-21
2021/12/02 01:18:47;;;;;;;38.78;20.55;;;;;;;0.71;70.39;99777.34;5092270;28;20047;-21
2021/12/02 01:21:14;;;;;;;31.30;18.25;;;;;;;0.58;70.78;99777.81;5110062;28;20472;-20
2021/12/02 01:23:40;;;;;;;27.50;15.40;;;;;;;0.82;69.25;99794.56;5110437;28;20118;-20
2021/12/02 01:26:06;;;;;;;28.83;16.42;;;;;;;0.63;69.35;99777.34;5091940;28;20039;-20
2021/12/02 01:28:32;;;;;;;30.52;18.42;;;;;;;0.89;68.96;99779.84;5091908;28;20495;-21
2021/12/02 01:30:57;;;;;;;29.80;16.45;;;;;;;0.89;68.49;99785.09;5110102;28;20074;-21
2021/12/02 01:33:24;;;;;;;28.13;16.42;;;;;;;0.95;69.13;99785.25;5109874;28;20059;-20
2021/12/02 01:35:52;;;;;;;26.98;16.17;;;;;;;0.84;68.53;99761.09;5110042;28;20062;-20
2021/12/02 01:38:18;;;;;;;29.17;15.43;;;;;;;1.22;68.58;99785.91;5091572;28;20106;-21
2021/12/02 01:40:44;;;;;;;22.35;14.73;;;;;;;1.15;68.98;99770.00;5091094;28;20041;-20
2021/12/02 01:43:09;;;;;;;26.42;13.50;;;;;;;0.84;71.17;99777.72;5109285;28;20522;-21
2021/12/02 01:45:39;;;;;;;23.70;13.27;;;;;;;0.32;72.82;99776.09;5091527;28;20032;-20
2021/12/02 01:48:05;;;;;;;26.52;14.48;;;;;;;0.46;72.36;99760.75;5109832;28;20034;-20
2021/12/02 01:50:30;;;;;;;28.35;15.55;;;;;;;0.51;72.12;99774.19;5074483;28;20036;-20
2021/12/02 01:53:00;;;;;;;27.42;14.63;;;;;;;0.91;70.63;99780.50;5091467;28;20040;-21
2021/12/02 01:55:26;;;;;;;22.80;13.65;;;;;;;0.93;71.20;99781.16;5109747;28;20027;-20
2021/12/02 01:58:04;;;;;;;23.73;14.00;;;;;;;0.87;70.97;99781.81;5109734;28;20031;-20
2021/12/02 02:00:41;;;;;;;23.55;13.43;;;;;;;0.90;70.34;99770.97;5109645;28;20352;-21
2021/12/02 02:03:06;;;;;;;22.10;13.85;;;;;;;0.72;70.93;99790.31;5109638;28;20127;-20
2021/12/02 02:05:32;;;;;;;25.73;13.80;;;;;;;0.85;71.26;99784.59;5109264;28;20019;-21
2021/12/02 02:08:17;;;;;;;24.85;13.15;;;;;;;0.44;71.71;99771.41;5109079;28;20028;-21
2021/12/02 02:10:43;;;;;;;60.85;28.50;;;;;;;0.63;72.34;99791.28;5109197;28;20828;-21
2021/12/02 02:13:10;;;;;;;26.90;15.23;;;;;;;0.52;72.55;99794.22;5090904;28;20031;-21
2021/12/02 02:15:40;;;;;;;37.65;19.30;;;;;;;0.83;71.39;99775.22;5109486;28;20039;-20
2021/12/02 02:18:18;;;;;;;31.92;17.65;;;;;;;0.90;70.73;99778.84;5109272;28;20028;-21
2021/12/02 02:21:03;;;;;;;36.33;20.45;;;;;;;1.27;69.44;99781.00;5109025;28;20035;-21
2021/12/02 02:23:31;;;;;;;34.47;19.73;;;;;;;1.10;69.88;99793.28;5092489;28;20096;-20
2021/12/02 02:25:57;;;;;;;35.30;20.48;;;;;;;1.45;69.01;99778.19;5091160;28;20024;-21
2021/12/02 02:28:23;;;;;;;30.75;17.35;;;;;;;1.52;68.43;99786.22;5108829;28;20054;-21
2021/12/02 02:30:48;;;;;;;38.38;20.55;;;;;;;1.47;68.14;99786.72;5090846;28;20415;-22
2021/12/02 02:33:15;;;;;;;35.72;19.73;;;;;;;1.49;68.79;99782.13;5108752;28;20031;-21
2021/12/02 02:35:42;;;;;;;37.85;22.00;;;;;;;1.76;67.79;99788.78;5108808;28;20028;-21
2021/12/02 02:38:08;;;;;;;43.97;23.10;;;;;;;1.14;68.71;99784.09;5108885;28;20059;-20
2021/12/02 02:40:35;;;;;;;35.75;20.63;;;;;;;1.00;69.56;99772.47;5090671;28;20031;-21
2021/12/02 02:43:07;;;;;;;34.55;20.67;;;;;;;1.08;69.50;99790.00;5108067;28;20059;-21
2021/12/02 02:45:33;;;;;;;37.03;20.85;;;;;;;0.74;70.16;99787.53;5075366;28;20111;-20
2021/12/02 02:47:58;;;;;;;34.33;20.85;;;;;;;0.23;72.12;99795.44;5108156;28;20102;-21
2021/12/02 02:50:23;;;;;;;33.67;20.77;;;;;;;0.73;71.51;99805.06;5090171;28;20035;-20
2021/12/02 02:52:49;;;;;;;36.95;19.80;;;;;;;0.30;70.79;99764.97;5108922;28;20032;-21
2021/12/02 02:55:22;;;;;;;32.03;18.58;;;;;;;0.63;68.68;99809.63;5073427;28;20095;-20
2021/12/02 02:58:00;;;;;;;34.20;17.75;;;;;;;0.59;68.91;99822.28;5091289;28;20034;-21
2021/12/02 03:00:53;;;;;;;32.35;15.52;;;;;;;-0.62;73.16;99831.97;5077285;28;20027;-21
2021/12/02 03:04:23;;;;;;;26.60;14.48;;;;;;;-1.14;74.74;99831.88;5107282;28;20039;-21
2021/12/02 03:06:34;;;;;;;23.42;13.43;;;;;;;-0.84;74.82;99810.53;5085020;28;20085;-21
2021/12/02 03:09:16;;;;;;;28.63;14.18;;;;;;;-1.02;76.00;99792.22;5080025;28;20474;-22
2021/12/02 03:11:46;;;;;;;31.45;15.35;;;;;;;-0.15;75.03;99815.91;5108296;28;20028;-20
2021/12/02 03:14:14;;;;;;;26.98;14.27;;;;;;;-0.14;72.78;99812.31;5074692;28;20035;-20
2021/12/02 03:16:46;;;;;;;30.07;13.93;;;;;;;-0.19;72.58;99804.09;5108269;28;20028;-20
2021/12/02 03:19:21;;;;;;;28.25;15.57;;;;;;;0.20;70.89;99800.97;5107763;28;20380;-21
2021/12/02 03:21:46;;;;;;;31.77;17.02;;;;;;;0.16;71.43;99781.31;5108252;28;20035;-21
2021/12/02 03:24:12;;;;;;;34.78;19.33;;;;;;;0.35;70.58;99798.59;5108093;28;20031;-21
2021/12/02 03:26:37;;;;;;;27.45;14.73;;;;;;;0.67;70.05;99802.28;5089729;28;20046;-21
2021/12/02 03:29:03;;;;;;;22.73;13.32;;;;;;;0.58;69.56;99793.56;5108241;28;20038;-22
2021/12/02 03:31:29;;;;;;;27.60;13.82;;;;;;;0.05;71.88;99787.66;5108387;28;20862;-20
2021/12/02 03:33:54;;;;;;;26.40;15.15;;;;;;;0.18;71.79;99798.53;5108412;28;20140;-20
2021/12/02 03:36:19;;;;;;;26.67;16.05;;;;;;;0.28;70.54;99789.72;5108161;28;20043;-20
2021/12/02 03:38:45;;;;;;;34.78;17.85;;;;;;;-0.01;72.34;99794.34;5107943;28;20027;-21
2021/12/02 03:41:11;;;;;;;27.45;14.60;;;;;;;0.33;70.73;99796.13;5107697;28;20523;-20
2021/12/02 03:43:41;;;;;;;28.83;15.10;;;;;;;0.17;71.27;99796.06;5107983;28;20056;-21
2021/12/02 03:46:07;;;;;;;27.58;15.30;;;;;;;-0.13;71.90;99800.03;5107815;28;20035;-21
2021/12/02 03:48:33;;;;;;;25.95;14.98;;;;;;;0.39;69.71;99808.59;5107687;28;20475;-21
2021/12/02 03:50:58;;;;;;;21.83;13.25;;;;;;;0.36;70.28;99805.47;5108107;28;20035;-21
2021/12/02 03:53:24;;;;;;;21.75;12.07;;;;;;;0.45;71.60;99808.94;5089584;28;20034;-21
2021/12/02 03:55:49;;;;;;;22.95;12.98;;;;;;;0.08;72.31;99810.13;5107780;28;20028;-20
2021/12/02 03:58:15;;;;;;;22.65;12.40;;;;;;;0.52;71.15;99812.59;5107740;28;20027;-20
2021/12/02 04:00:40;;;;;;;21.83;12.35;;;;;;;0.21;71.78;99828.88;5108299;28;20518;-20
2021/12/02 04:03:06;;;;;;;21.77;11.27;;;;;;;-0.10;73.19;99821.50;5109613;28;20411;-20
2021/12/02 04:05:31;;;;;;;22.50;11.90;;;;;;;-0.01;72.16;99799.59;5111931;28;20326;-21
2021/12/02 04:07:56;;;;;;;22.23;12.57;;;;;;;0.52;71.50;99810.78;5111594;28;20035;-20
2021/12/02 04:10:23;;;;;;;25.10;13.85;;;;;;;0.44;70.26;99791.56;5111635;28;20100;-21
2021/12/02 04:12:56;;;;;;;21.38;12.35;;;;;;;0.59;69.61;99810.94;5093823;28;20035;-21
2021/12/02 04:15:25;;;;;;;20.88;12.40;;;;;;;-0.09;70.95;99802.16;5111294;28;20027;-21
2021/12/02 04:17:51;;;;;;;28.73;14.55;;;;;;;0.21;70.56;99807.06;5111671;28;20042;-21
2021/12/02 04:20:22;;;;;;;25.88;12.88;;;;;;;-0.25;71.42;99787.19;5093241;28;20023;-21
2021/12/02 04:22:47;;;;;;;24.75;12.65;;;;;;;-0.38;72.99;99812.19;5111379;28;20080;-21
2021/12/02 04:25:13;;;;;;;24.15;12.18;;;;;;;-0.33;72.27;99799.41;5110998;28;20110;-21
2021/12/02 04:27:39;;;;;;;24.83;12.13;;;;;;;-0.81;73.51;99809.41;5110432;28;20023;-20
2021/12/02 04:30:05;;;;;;;24.40;12.75;;;;;;;-1.44;75.50;99799.84;5111043;28;20039;-21
2021/12/02 04:32:31;;;;;;;22.65;13.77;;;;;;;-1.25;75.00;99804.09;5111041;28;20062;-21
2021/12/02 04:34:56;;;;;;;29.48;14.05;;;;;;;-0.63;71.74;99784.00;5111295;28;20038;-20
2021/12/02 04:37:22;;;;;;;23.63;12.38;;;;;;;-0.31;72.17;99823.66;5110656;28;20036;-20
2021/12/02 04:39:47;;;;;;;24.95;13.50;;;;;;;-0.16;71.40;99816.03;5092845;28;20035;-20
2021/12/02 04:42:13;;;;;;;21.33;12.18;;;;;;;0.01;70.67;99816.97;5111132;28;20400;-21
2021/12/02 04:44:38;;;;;;;20.67;11.10;;;;;;;0.20;69.20;99811.47;5111182;28;20084;-21
2021/12/02 04:47:04;;;;;;;38.03;20.73;;;;;;;-0.25;70.11;99817.81;5110583;28;20751;-20
2021/12/02 04:49:29;;;;;;;45.78;24.83;;;;;;;-0.80;73.69;99824.13;5111037;28;20046;-21
2021/12/02 04:51:55;;;;;;;32.50;19.25;;;;;;;-1.19;74.30;99815.78;5092426;28;20036;-20
2021/12/02 04:54:20;;;;;;;34.35;20.00;;;;;;;-0.98;73.91;99826.78;5092673;28;20409;-20
2021/12/02 04:56:46;;;;;;;53.65;30.58;;;;;;;-0.41;72.32;99836.88;5111005;28;20042;-20
2021/12/02 04:59:11;;;;;;;35.63;21.83;;;;;;;-0.88;73.17;99822.28;5092256;28;20112;-21
2021/12/02 05:01:36;;;;;;;67.38;40.33;;;;;;;-0.77;73.68;99834.31;5092549;28;20063;-20
2021/12/02 05:04:02;;;;;;;40.15;23.42;;;;;;;-0.99;74.30;99809.41;5092448;28;20039;-21
2021/12/02 05:06:28;;;;;;;51.17;27.35;;;;;;;-0.69;73.78;99823.91;5110727;28;20042;-21
2021/12/02 05:08:53;;;;;;;55.05;26.23;;;;;;;-0.35;72.64;99827.56;5110435;28;20023;-21
2021/12/02 05:11:18;;;;;;;45.05;24.52;;;;;;;-0.12;71.25;99807.75;5110500;28;20035;-21
2021/12/02 05:13:44;;;;;;;50.20;26.23;;;;;;;0.45;69.99;99814.19;5075294;28;20023;-21
2021/12/02 05:16:09;;;;;;;55.67;31.90;;;;;;;0.81;68.17;99820.03;5110087;28;20065;-21
2021/12/02 05:18:35;;;;;;;56.35;31.30;;;;;;;0.48;68.89;99821.75;5110652;28;20410;-20
2021/12/02 05:21:00;;;;;;;58.33;32.28;;;;;;;0.44;68.85;99813.38;5091739;28;20043;-21
2021/12/02 05:23:26;;;;;;;53.88;30.88;;;;;;;0.33;68.66;99796.13;5110343;28;20092;-21
2021/12/02 05:25:51;;;;;;;54.55;28.05;;;;;;;0.05;69.00;99785.03;5110876;28;20042;-21
2021/12/02 05:28:20;;;;;;;51.25;27.88;;;;;;;0.47;68.85;99826.19;5110057;28;20841;-21
2021/12/02 05:30:46;;;;;;;56.35;30.90;;;;;;;0.33;69.13;99813.69;5110088;28;20234;-20
2021/12/02 05:33:11;;;;;;;49.50;28.75;;;;;;;0.11;69.76;99830.78;5110068;28;20471;-20
2021/12/02 05:35:37;;;;;;;49.35;27.60;;;;;;;-0.91;72.69;99812.09;5110154;28;20032;-21
2021/12/02 05:38:03;;;;;;;60.58;33.30;;;;;;;-0.51;72.23;99834.38;5110251;28;20035;-20
2021/12/02 05:40:28;;;;;;;84.38;44.22;;;;;;;0.12;70.91;99829.78;5110041;28;20035;-21
2021/12/02 05:42:54;;;;;;;90.82;45.10;;;;;;;0.01;69.93;99822.22;5109401;28;20043;-21
2021/12/02 05:45:19;;;;;;;99.55;43.03;;;;;;;-0.32;71.45;99824.66;5091033;28;20062;-21
2021/12/02 05:47:45;;;;;;;82.47;38.17;;;;;;;0.05;70.86;99828.78;5109766;28;20024;-21
2021/12/02 05:50:10;;;;;;;58.20;31.33;;;;;;;0.17;70.71;99833.59;5109743;28;20081;-21
2021/12/02 05:52:36;;;;;;;62.05;30.58;;;;;;;0.29;68.99;99831.53;5109652;28;20027;-20
2021/12/02 05:55:01;;;;;;;49.90;25.20;;;;;;;-0.11;71.23;99846.06;5109617;28;20035;-21
2021/12/02 05:57:26;;;;;;;46.72;25.08;;;;;;;-0.52;72.79;99843.19;5109826;28;20038;-21
2021/12/02 05:59:52;;;;;;;44.95;26.15;;;;;;;-0.55;72.78;99837.41;5091180;28;20042;-20
2021/12/02 06:02:17;;;;;;;56.97;33.42;;;;;;;-0.80;74.16;99813.66;5109556;28;20035;-21
2021/12/02 06:04:45;;;;;;;51.67;30.92;;;;;;;0.08;71.67;99837.19;5109736;28;20070;-20
2021/12/02 06:07:10;;;;;;;107.97;46.55;;;;;;;0.04;71.96;99816.66;5108887;28;20036;-20
2021/12/02 06:09:36;;;;;;;184.43;69.18;;;;;;;-0.06;73.04;99832.50;5109613;28;20125;-22
2021/12/02 06:12:01;;;;;;;148.30;55.72;;;;;;;0.07;73.55;99824.22;5109015;28;20039;-20
2021/12/02 06:14:27;;;;;;;102.07;43.53;;;;;;;0.55;71.89;99823.59;5109288;28;20106;-25
2021/12/02 06:16:52;;;;;;;73.88;34.42;;;;;;;0.65;71.69;99804.25;5109209;28;20093;-21
2021/12/02 06:19:18;;;;;;;107.63;46.78;;;;;;;1.14;70.45;99820.88;5108821;28;20031;-20
2021/12/02 06:21:43;;;;;;;58.08;30.83;;;;;;;0.87;70.03;99815.94;5109031;28;20038;-21
2021/12/02 06:24:09;;;;;;;49.88;26.08;;;;;;;0.60;71.50;99808.16;5109282;28;20028;-21
2021/12/02 06:26:34;;;;;;;33.38;20.90;;;;;;;0.39;74.01;99821.72;5108524;28;20032;-22
2021/12/02 06:29:00;;;;;;;34.58;19.63;;;;;;;0.25;74.71;99809.22;5108672;28;20032;-21
2021/12/02 06:31:25;;;;;;;32.95;19.88;;;;;;;0.37;75.54;99823.69;5109071;28;20042;-21
2021/12/02 06:33:51;;;;;;;45.20;21.13;;;;;;;0.32;75.68;99815.44;5109003;28;20031;-21
2021/12/02 06:36:16;;;;;;;36.25;18.40;;;;;;;0.80;74.26;99819.19;5090562;28;20042;-21
2021/12/02 06:38:42;;;;;;;24.33;16.48;;;;;;;1.06;73.78;99823.47;5108903;28;20502;-21
2021/12/02 06:41:08;;;;;;;35.95;21.67;;;;;;;0.53;75.04;99790.59;5108604;28;20038;-21
2021/12/02 06:43:33;;;;;;;29.70;15.50;;;;;;;0.64;76.06;99806.06;5108469;28;20047;-20
2021/12/02 06:45:59;;;;;;;31.52;16.85;;;;;;;0.58;75.78;99830.31;5108685;28;20031;-20
2021/12/02 06:48:24;;;;;;;58.92;30.00;;;;;;;0.63;76.49;99833.25;5108755;28;20027;-20
2021/12/02 06:50:50;;;;;;;39.28;19.98;;;;;;;0.73;75.94;99833.94;5108613;28;20084;-20
2021/12/02 06:53:17;;;;;;;32.85;18.42;;;;;;;1.23;74.92;99834.00;5108383;28;20038;-20
2021/12/02 06:55:43;;;;;;;37.92;18.75;;;;;;;1.18;74.57;99832.69;5090121;28;20033;-20
2021/12/02 06:58:08;;;;;;;40.55;19.85;;;;;;;1.25;74.30;99832.88;5108513;28;20097;-20
2021/12/02 07:00:34;;;;;;;42.38;20.20;;;;;;;1.21;74.76;99821.06;5108628;28;20028;-21
2021/12/02 07:03:01;;;;;;;32.78;17.80;;;;;;;1.93;72.86;99823.75;5108210;28;20039;-21
2021/12/02 07:05:29;;;;;;;51.53;26.27;;;;;;;1.91;71.98;99827.53;5108293;28;20027;-20
2021/12/02 07:07:54;;;;;;;71.47;33.85;;;;;;;2.17;70.69;99817.59;5108211;28;20030;-20
2021/12/02 07:10:23;;;;;;;58.20;27.80;;;;;;;2.05;71.28;99833.91;5108290;28;20032;-22
2021/12/02 07:12:51;;;;;;;;;;;;;;;2.15;72.12;99840.63;5108791;28;20039;-21
2021/12/02 07:15:18;;;;;;;48.78;25.25;;;;;;;2.13;71.30;99832.06;5107879;28;19912;-21
2021/12/02 07:17:55;;;;;;;48.45;25.10;;;;;;;2.41;71.45;99832.47;5108438;28;20101;-20
2021/12/02 07:20:21;;;;;;;51.03;27.03;;;;;;;2.63;69.80;99827.41;5108264;28;20043;-20
2021/12/02 07:22:46;;;;;;;38.03;21.67;;;;;;;2.34;71.81;99838.56;5108279;28;20059;-20
2021/12/02 07:25:12;;;;;;;39.22;20.27;;;;;;;1.87;73.89;99811.25;5108170;28;20395;-20
2021/12/02 07:27:37;;;;;;;39.67;21.02;;;;;;;2.04;74.81;99827.81;5108129;28;20089;-21
2021/12/02 07:30:04;;;;;;;36.17;20.02;;;;;;;2.16;74.04;99812.50;5108321;28;20071;-21
2021/12/02 07:32:35;;;;;;;50.05;24.42;;;;;;;2.13;73.93;99837.34;5108151;28;20075;-20
2021/12/02 07:35:01;;;;;;;42.15;21.42;;;;;;;1.92;75.48;99801.06;5108115;28;20034;-21
2021/12/02 07:37:26;;;;;;;39.20;21.45;;;;;;;2.22;74.72;99835.47;5090915;28;20027;-20
2021/12/02 07:39:51;;;;;;;46.95;24.23;;;;;;;2.68;74.09;99827.72;5077471;28;20032;-21
2021/12/02 07:42:17;;;;;;;46.20;23.85;;;;;;;3.36;70.13;99827.91;5094225;28;20051;-21
2021/12/02 07:44:43;;;;;;;50.28;27.45;;;;;;;3.04;71.42;99832.41;5093623;28;20043;-20
2021/12/02 07:47:08;;;;;;;47.92;25.17;;;;;;;2.69;72.87;99831.97;5093462;28;20482;-20
2021/12/02 07:49:34;;;;;;;45.83;24.33;;;;;;;2.42;73.58;99825.38;5112311;28;20023;-20
2021/12/02 07:52:00;;;;;;;51.63;25.40;;;;;;;3.04;71.69;99821.88;5112277;28;20118;-20
2021/12/02 07:54:25;;;;;;;53.35;26.45;;;;;;;3.21;72.07;99831.31;5093788;28;20391;-20
2021/12/02 07:56:51;;;;;;;46.75;27.70;;;;;;;3.20;72.34;99813.03;5111937;28;20036;-20
2021/12/02 07:59:17;;;;;;;41.25;22.38;;;;;;;3.29;71.92;99817.25;5076764;28;20031;-21
2021/12/02 08:01:43;;;;;;;46.03;23.92;;;;;;;3.79;70.02;99802.59;5111999;28;20473;-21
2021/12/02 08:04:09;;;;;;;36.85;21.70;;;;;;;3.95;70.61;99806.06;5112476;28;20032;-21
2021/12/02 08:06:34;;;;;;;37.70;19.50;;;;;;;3.88;71.01;99798.03;5111840;28;20395;-20
2021/12/02 08:09:00;;;;;;;36.40;18.90;;;;;;;4.08;72.30;99805.41;5111343;28;20080;-20
2021/12/02 08:11:25;;;;;;;36.65;21.27;;;;;;;4.33;70.10;99783.00;5111806;28;20688;-20
2021/12/02 08:13:54;;;;;;;28.85;16.02;;;;;;;4.48;68.22;99805.94;5111488;28;20047;-20
2021/12/02 08:16:20;;;;;;;25.70;15.35;;;;;;;4.33;69.70;99817.34;5111291;28;20123;-21
2021/12/02 08:18:45;;;;;;;22.95;13.13;;;;;;;4.61;69.24;99811.34;5111801;28;20070;-20
2021/12/02 08:21:10;;;;;;;23.40;11.98;;;;;;;4.69;69.87;99808.59;5111356;28;20036;-20
2021/12/02 08:23:36;;;;;;;27.48;14.02;;;;;;;5.12;67.45;99811.25;5111322;28;20027;-20
2021/12/02 08:26:01;;;;;;;21.05;11.48;;;;;;;5.22;67.56;99803.00;5111745;28;20035;-20
2021/12/02 08:28:28;;;;;;;16.45;11.35;;;;;;;5.46;66.92;99803.63;5111363;28;20035;-20
2021/12/02 08:30:54;;;;;;;24.05;13.80;;;;;;;5.80;66.17;99816.88;5111160;28;20031;-21
2021/12/02 08:33:20;;;;;;;23.58;14.10;;;;;;;6.47;64.30;99819.91;5111093;28;20035;-21
2021/12/02 08:35:46;;;;;;;21.33;12.85;;;;;;;6.28;64.64;99807.41;5093117;28;20505;-21
2021/12/02 08:38:15;;;;;;;19.10;11.35;;;;;;;6.00;65.42;99795.84;5111081;28;20032;-20
2021/12/02 08:40:42;;;;;;;19.38;11.77;;;;;;;6.33;64.14;99811.06;5111223;28;20042;-22
2021/12/02 08:43:09;;;;;;;23.08;12.35;;;;;;;6.37;63.34;99796.41;5110537;28;20047;-21
2021/12/02 08:45:35;;;;;;;19.80;12.10;;;;;;;6.34;63.99;99812.72;5111211;28;20032;-20
2021/12/02 08:48:00;;;;;;;24.63;13.07;;;;;;;6.32;64.42;99801.50;5092379;28;20084;-21
2021/12/02 08:50:26;;;;;;;23.05;13.05;;;;;;;6.71;64.75;99796.53;5110912;28;20110;-20
2021/12/02 08:52:52;;;;;;;26.80;15.40;;;;;;;6.71;62.54;99794.69;5110642;28;20066;-23
2021/12/02 08:55:18;;;;;;;31.98;16.38;;;;;;;7.03;61.61;99771.13;5110357;28;20062;-20
2021/12/02 08:57:45;;;;;;;36.30;16.73;;;;;;;7.60;59.26;99788.25;5092167;28;20028;-21
2021/12/02 09:00:12;;;;;;;30.85;15.00;;;;;;;7.27;60.13;99769.69;5109848;28;20134;-20
2021/12/02 09:02:37;;;;;;;27.83;14.77;;;;;;;7.07;62.16;99759.09;5110775;28;20035;-21
2021/12/02 09:05:04;;;;;;;25.92;14.85;;;;;;;7.20;60.96;99775.00;5110849;28;20040;-21
2021/12/02 09:07:30;;;;;;;31.63;15.20;;;;;;;7.58;59.99;99774.38;5110897;28;20028;-20
2021/12/02 09:09:55;;;;;;;30.17;15.35;;;;;;;8.02;59.13;99762.19;5110842;28;20036;-20
2021/12/02 09:12:22;;;;;;;24.25;14.48;;;;;;;8.05;57.26;99737.09;5110330;28;20483;-21
2021/12/02 09:14:47;;;;;;;24.70;13.95;;;;;;;8.36;57.08;99740.84;5110128;28;20032;-20
2021/12/02 09:17:13;;;;;;;25.85;14.82;;;;;;;8.47;55.95;99728.75;5110315;28;20108;-21
2021/12/02 09:19:38;;;;;;;22.65;12.73;;;;;;;8.42;57.12;99740.81;5110236;28;20042;-20
2021/12/02 09:22:04;;;;;;;21.50;13.40;;;;;;;8.34;57.76;99725.09;5110134;28;20039;-20
2021/12/02 09:24:29;;;;;;;22.30;13.90;;;;;;;8.49;58.72;99729.34;5091959;28;20034;-20
2021/12/02 09:26:55;;;;;;;23.13;13.15;;;;;;;8.37;56.83;99714.03;5110100;28;20032;-20
2021/12/02 09:29:20;;;;;;;24.05;13.48;;;;;;;8.38;57.55;99704.25;5110053;28;20031;-20
2021/12/02 09:31:46;;;;;;;24.20;14.60;;;;;;;9.30;56.29;99725.88;5110157;28;20506;-20
2021/12/02 09:34:12;;;;;;;27.58;15.57;;;;;;;9.58;53.11;99712.09;5110041;28;20023;-20
2021/12/02 09:36:37;;;;;;;28.23;16.23;;;;;;;9.96;52.32;99715.56;5110143;28;20031;-20
2021/12/02 09:39:03;;;;;;;25.27;14.95;;;;;;;10.11;52.01;99704.50;5109821;28;20496;-20
2021/12/02 09:41:29;;;;;;;26.13;16.15;;;;;;;10.21;52.29;99720.78;5109805;28;20058;-21
2021/12/02 09:43:54;;;;;;;28.63;15.57;;;;;;;9.92;52.75;99699.22;5109609;28;20435;-21
2021/12/02 09:46:20;;;;;;;34.30;18.85;;;;;;;10.37;51.64;99704.19;5110199;28;20036;-21
2021/12/02 09:48:46;;;;;;;114.53;55.40;;;;;;;10.44;51.86;99702.25;5109685;28;20023;-20
2021/12/02 09:51:15;;;;;;;30.88;18.63;;;;;;;10.90;50.31;99675.13;5109731;28;20031;-20
2021/12/02 09:53:53;;;;;;;25.35;15.05;;;;;;;11.17;50.00;99692.28;5110156;28;20081;-20
2021/12/02 09:56:24;;;;;;;29.65;16.00;;;;;;;10.83;51.93;99669.91;5109863;28;20038;-20
2021/12/02 09:58:52;;;;;;;28.85;16.52;;;;;;;11.24;50.80;99693.00;5109671;28;20032;-21
2021/12/02 10:01:20;;;;;;;30.98;16.60;;;;;;;11.34;49.92;99687.09;5108436;28;20027;-21
2021/12/02 10:03:51;;;;;;;31.27;16.20;;;;;;;11.66;49.59;99684.81;5109673;28;20032;-20
2021/12/02 10:06:22;;;;;;;34.92;17.65;;;;;;;11.53;49.70;99681.59;5109974;28;20040;-20
2021/12/02 10:09:06;;;;;;;30.83;15.93;;;;;;;11.73;50.63;99678.53;5109237;28;20110;-20
2021/12/02 10:11:37;;;;;;;25.35;14.75;;;;;;;11.74;50.00;99680.16;5109630;28;20384;-20
2021/12/02 10:14:21;;;;;;;26.92;16.70;;;;;;;11.66;51.42;99663.44;5109315;28;20106;-20
2021/12/02 10:16:48;;;;;;;28.88;15.35;;;;;;;11.87;49.80;99666.56;5109132;28;20028;-20
2021/12/02 10:19:27;;;;;;;24.58;14.82;;;;;;;12.43;48.63;99640.88;5108942;28;20059;-20
2021/12/02 10:22:12;;;;;;;18.33;10.55;;;;;;;13.07;46.49;99653.13;5109287;28;20031;-20
2021/12/02 10:24:42;;;;;;;18.50;11.00;;;;;;;13.08;47.49;99644.06;5109071;28;20043;-21
2021/12/02 10:27:07;;;;;;;15.48;9.85;;;;;;;13.08;46.56;99638.69;5108716;28;20478;-20
2021/12/02 10:29:34;;;;;;;19.75;12.30;;;;;;;13.30;47.09;99616.50;5108613;28;20092;-20
2021/12/02 10:32:08;;;;;;;17.23;11.23;;;;;;;13.79;45.71;99613.91;5109088;28;20028;-20
2021/12/02 10:34:51;;;;;;;20.05;14.13;;;;;;;13.78;46.52;99612.28;5108935;28;20490;-20
2021/12/02 10:37:19;;;;;;;15.98;10.60;;;;;;;14.03;46.45;99599.16;5108837;28;20016;-20
2021/12/02 10:39:55;;;;;;;12.73;8.85;;;;;;;14.64;44.08;99614.22;5108810;28;20036;-20
2021/12/02 10:42:21;;;;;;;14.02;9.88;;;;;;;14.61;43.67;99615.53;5108448;28;20052;-20
2021/12/02 10:44:46;;;;;;;20.20;12.18;;;;;;;14.24;46.37;99605.53;5108744;28;20043;-20
2021/12/02 10:47:13;;;;;;;18.73;11.20;;;;;;;14.49;44.32;99590.72;5108870;28;20027;-20
2021/12/02 10:49:44;;;;;;;19.33;10.93;;;;;;;14.74;44.99;99602.75;5108653;28;20067;-20
2021/12/02 10:52:13;;;;;;;16.00;10.52;;;;;;;14.91;43.70;99586.47;5108810;28;20027;-20
2021/12/02 10:54:42;;;;;;;13.63;8.98;;;;;;;14.84;42.89;99592.88;5108585;28;20400;-20
2021/12/02 10:57:12;;;;;;;12.93;8.88;;;;;;;15.29;42.94;99595.28;5108641;28;20031;-20
2021/12/02 10:59:40;;;;;;;13.80;8.45;;;;;;;15.58;40.78;99591.09;5108373;28;20042;-20
2021/12/02 11:02:15;;;;;;;13.07;8.10;;;;;;;15.88;40.91;99567.31;5108556;28;20027;-20
2021/12/02 11:04:42;;;;;;;14.73;9.48;;;;;;;16.15;40.24;99577.84;5108474;28;20038;-20
2021/12/02 11:07:11;;;;;;;18.17;10.97;;;;;;;16.42;40.10;99577.56;5107897;28;20027;-20
2021/12/02 11:09:37;;;;;;;18.00;9.88;;;;;;;15.75;42.09;99557.84;5108205;28;20064;-20
2021/12/02 11:12:12;;;;;;;16.25;8.75;;;;;;;16.41;38.06;99566.00;5108073;28;20501;-20
2021/12/02 11:15:16;;;;;;;13.82;8.25;;;;;;;17.19;37.13;99570.19;5108430;28;20031;-25
2021/12/02 11:17:49;;;;;;;14.90;8.10;;;;;;;17.07;38.03;99553.53;5103982;28;20035;-20
2021/12/02 11:20:26;;;;;;;13.80;8.40;;;;;;;17.38;36.72;99565.00;5108375;28;20035;-21
2021/12/02 11:22:58;;;;;;;14.73;8.05;;;;;;;17.43;36.21;99542.63;5108412;28;20159;-20
2021/12/02 11:25:24;;;;;;;12.77;7.97;;;;;;;17.80;34.82;99557.53;5108151;28;20865;-20
2021/12/02 11:27:50;;;;;;;11.20;7.15;;;;;;;17.91;34.67;99548.31;5107925;28;20024;-21